sensor_id;sensor_type;location;lat;lon;timestamp;P1;durP1;ratioP1;P2;durP2;ratioP2
17201;SDS011;8717;53.588;10.176;2022-11-24T00:00:23;6.43;;;4.17;;
17201;SDS011;8717;53.588;10.176;2022-11-24T00:02:52;8.33;;;4.30;;
17201;SDS011;8717;53.588;10.176;2022-11-24T00:05:18;9.13;;;4.53;;
17201;SDS011;8717;53.588;10.176;2022-11-24T00:07:45;9.73;;;4.30;;
17201;SDS011;8717;53.588;10.176;2022-11-24T00:10:12;11.00;;;4.67;;
17201;SDS011;8717;53.588;10.176;2022-11-24T00:12:38;7.00;;;4.33;;
17201;SDS011;8717;53.588;10.176;2022-11-24T00:15:05;6.87;;;4.17;;
17201;SDS011;8717;53.588;10.176;2022-11-24T00:17:32;10.83;;;5.00;;
17201;SDS011;8717;53.588;10.176;2022-11-24T00:20:03;7.67;;;4.53;;
17201;SDS011;8717;53.588;10.176;2022-11-24T00:22:30;6.83;;;4.30;;
17201;SDS011;8717;53.588;10.176;2022-11-24T00:24:57;7.63;;;4.43;;
17201;SDS011;8717;53.588;10.176;2022-11-24T00:27:23;12.07;;;4.47;;
17201;SDS011;8717;53.588;10.176;2022-11-24T00:29:50;8.23;;;4.60;;
17201;SDS011;8717;53.588;10.176;2022-11-24T00:32:17;9.57;;;5.27;;
17201;SDS011;8717;53.588;10.176;2022-11-24T00:34:43;9.97;;;5.00;;
17201;SDS011;8717;53.588;10.176;2022-11-24T00:37:11;7.50;;;4.73;;
17201;SDS011;8717;53.588;10.176;2022-11-24T00:39:41;8.17;;;4.83;;
17201;SDS011;8717;53.588;10.176;2022-11-24T00:42:08;10.83;;;5.07;;
17201;SDS011;8717;53.588;10.176;2022-11-24T00:44:34;11.03;;;5.40;;
17201;SDS011;8717;53.588;10.176;2022-11-24T00:47:01;12.20;;;5.83;;
17201;SDS011;8717;53.588;10.176;2022-11-24T00:49:27;8.77;;;5.07;;
17201;SDS011;8717;53.588;10.176;2022-11-24T00:51:54;10.57;;;5.60;;
17201;SDS011;8717;53.588;10.176;2022-11-24T00:54:22;17.30;;;5.97;;
17201;SDS011;8717;53.588;10.176;2022-11-24T00:56:52;8.27;;;5.13;;
17201;SDS011;8717;53.588;10.176;2022-11-24T00:59:19;7.73;;;5.00;;
17201;SDS011;8717;53.588;10.176;2022-11-24T01:01:45;10.23;;;5.10;;
17201;SDS011;8717;53.588;10.176;2022-11-24T01:04:12;9.77;;;5.10;;
17201;SDS011;8717;53.588;10.176;2022-11-24T01:06:39;11.67;;;5.07;;
17201;SDS011;8717;53.588;10.176;2022-11-24T01:09:06;11.33;;;5.10;;
17201;SDS011;8717;53.588;10.176;2022-11-24T01:11:34;7.87;;;5.13;;
17201;SDS011;8717;53.588;10.176;2022-11-24T01:14:15;6.77;;;5.00;;
17201;SDS011;8717;53.588;10.176;2022-11-24T01:16:42;14.30;;;5.57;;
17201;SDS011;8717;53.588;10.176;2022-11-24T01:19:08;16.23;;;4.60;;
17201;SDS011;8717;53.588;10.176;2022-11-24T01:21:35;7.50;;;4.60;;
17201;SDS011;8717;53.588;10.176;2022-11-24T01:24:02;7.67;;;4.77;;
17201;SDS011;8717;53.588;10.176;2022-11-24T01:26:29;16.37;;;5.20;;
17201;SDS011;8717;53.588;10.176;2022-11-24T01:28:57;25.07;;;5.50;;
17201;SDS011;8717;53.588;10.176;2022-11-24T01:31:24;11.20;;;4.90;;
17201;SDS011;8717;53.588;10.176;2022-11-24T01:33:51;8.70;;;4.70;;
17201;SDS011;8717;53.588;10.176;2022-11-24T01:36:19;8.77;;;4.73;;
17201;SDS011;8717;53.588;10.176;2022-11-24T01:38:46;11.50;;;4.83;;
17201;SDS011;8717;53.588;10.176;2022-11-24T01:41:13;11.00;;;4.50;;
17201;SDS011;8717;53.588;10.176;2022-11-24T01:43:42;11.33;;;4.80;;
17201;SDS011;8717;53.588;10.176;2022-11-24T01:46:13;10.10;;;5.17;;
17201;SDS011;8717;53.588;10.176;2022-11-24T01:48:45;14.10;;;5.23;;
17201;SDS011;8717;53.588;10.176;2022-11-24T01:51:17;7.90;;;4.70;;
17201;SDS011;8717;53.588;10.176;2022-11-24T01:53:48;12.00;;;5.53;;
17201;SDS011;8717;53.588;10.176;2022-11-24T01:56:18;10.57;;;4.77;;
17201;SDS011;8717;53.588;10.176;2022-11-24T01:58:45;8.53;;;4.97;;
17201;SDS011;8717;53.588;10.176;2022-11-24T02:01:15;8.23;;;5.50;;
17201;SDS011;8717;53.588;10.176;2022-11-24T02:03:43;10.60;;;5.30;;
17201;SDS011;8717;53.588;10.176;2022-11-24T02:06:12;9.03;;;5.93;;
17201;SDS011;8717;53.588;10.176;2022-11-24T02:08:44;8.47;;;4.67;;
17201;SDS011;8717;53.588;10.176;2022-11-24T02:11:15;9.83;;;5.43;;
17201;SDS011;8717;53.588;10.176;2022-11-24T02:13:42;11.30;;;5.43;;
17201;SDS011;8717;53.588;10.176;2022-11-24T02:16:10;11.03;;;4.90;;
17201;SDS011;8717;53.588;10.176;2022-11-24T02:18:39;12.60;;;5.43;;
17201;SDS011;8717;53.588;10.176;2022-11-24T02:21:07;8.47;;;4.93;;
17201;SDS011;8717;53.588;10.176;2022-11-24T02:23:36;11.03;;;5.23;;
17201;SDS011;8717;53.588;10.176;2022-11-24T02:26:10;9.07;;;4.97;;
17201;SDS011;8717;53.588;10.176;2022-11-24T02:28:43;10.03;;;5.30;;
17201;SDS011;8717;53.588;10.176;2022-11-24T02:31:11;7.40;;;4.90;;
17201;SDS011;8717;53.588;10.176;2022-11-24T02:33:38;10.50;;;4.77;;
17201;SDS011;8717;53.588;10.176;2022-11-24T02:36:06;9.43;;;5.20;;
17201;SDS011;8717;53.588;10.176;2022-11-24T02:38:33;9.90;;;4.70;;
17201;SDS011;8717;53.588;10.176;2022-11-24T02:41:01;9.53;;;5.27;;
17201;SDS011;8717;53.588;10.176;2022-11-24T02:43:32;7.27;;;4.60;;
17201;SDS011;8717;53.588;10.176;2022-11-24T02:46:03;10.20;;;5.20;;
17201;SDS011;8717;53.588;10.176;2022-11-24T02:48:30;14.73;;;6.17;;
17201;SDS011;8717;53.588;10.176;2022-11-24T02:50:57;8.70;;;5.00;;
17201;SDS011;8717;53.588;10.176;2022-11-24T02:53:24;8.77;;;4.67;;
17201;SDS011;8717;53.588;10.176;2022-11-24T02:55:51;10.03;;;5.07;;
17201;SDS011;8717;53.588;10.176;2022-11-24T02:58:18;9.53;;;4.80;;
17201;SDS011;8717;53.588;10.176;2022-11-24T03:00:44;9.47;;;5.20;;
17201;SDS011;8717;53.588;10.176;2022-11-24T03:03:13;12.13;;;5.00;;
17201;SDS011;8717;53.588;10.176;2022-11-24T03:05:39;11.07;;;5.10;;
17201;SDS011;8717;53.588;10.176;2022-11-24T03:08:06;10.43;;;4.70;;
17201;SDS011;8717;53.588;10.176;2022-11-24T03:10:33;12.20;;;5.37;;
17201;SDS011;8717;53.588;10.176;2022-11-24T03:12:59;10.77;;;5.57;;
17201;SDS011;8717;53.588;10.176;2022-11-24T03:15:26;10.83;;;5.20;;
17201;SDS011;8717;53.588;10.176;2022-11-24T03:17:53;11.20;;;4.87;;
17201;SDS011;8717;53.588;10.176;2022-11-24T03:20:22;8.47;;;4.40;;
17201;SDS011;8717;53.588;10.176;2022-11-24T03:22:49;10.63;;;5.43;;
17201;SDS011;8717;53.588;10.176;2022-11-24T03:25:16;12.27;;;5.03;;
17201;SDS011;8717;53.588;10.176;2022-11-24T03:27:42;7.03;;;5.13;;
17201;SDS011;8717;53.588;10.176;2022-11-24T03:30:11;13.83;;;5.73;;
17201;SDS011;8717;53.588;10.176;2022-11-24T03:32:38;9.20;;;5.13;;
17201;SDS011;8717;53.588;10.176;2022-11-24T03:35:06;11.77;;;5.77;;
17201;SDS011;8717;53.588;10.176;2022-11-24T03:37:35;8.90;;;5.63;;
17201;SDS011;8717;53.588;10.176;2022-11-24T03:40:01;10.03;;;5.20;;
17201;SDS011;8717;53.588;10.176;2022-11-24T03:42:29;10.90;;;6.07;;
17201;SDS011;8717;53.588;10.176;2022-11-24T03:44:56;7.10;;;5.33;;
17201;SDS011;8717;53.588;10.176;2022-11-24T03:47:22;7.07;;;4.77;;
17201;SDS011;8717;53.588;10.176;2022-11-24T03:49:49;12.13;;;5.90;;
17201;SDS011;8717;53.588;10.176;2022-11-24T03:52:16;13.43;;;5.60;;
17201;SDS011;8717;53.588;10.176;2022-11-24T03:54:44;12.93;;;5.70;;
17201;SDS011;8717;53.588;10.176;2022-11-24T03:57:11;8.50;;;4.90;;
17201;SDS011;8717;53.588;10.176;2022-11-24T03:59:38;14.50;;;5.83;;
17201;SDS011;8717;53.588;10.176;2022-11-24T04:02:05;10.77;;;5.67;;
17201;SDS011;8717;53.588;10.176;2022-11-24T04:04:31;13.50;;;5.93;;
17201;SDS011;8717;53.588;10.176;2022-11-24T04:06:58;11.13;;;5.53;;
17201;SDS011;8717;53.588;10.176;2022-11-24T04:09:25;8.23;;;5.50;;
17201;SDS011;8717;53.588;10.176;2022-11-24T04:11:56;8.93;;;5.77;;
17201;SDS011;8717;53.588;10.176;2022-11-24T04:14:40;13.53;;;5.60;;
17201;SDS011;8717;53.588;10.176;2022-11-24T04:17:07;10.87;;;5.53;;
17201;SDS011;8717;53.588;10.176;2022-11-24T04:19:34;9.90;;;5.50;;
17201;SDS011;8717;53.588;10.176;2022-11-24T04:22:02;11.37;;;6.07;;
17201;SDS011;8717;53.588;10.176;2022-11-24T04:24:30;9.73;;;5.87;;
17201;SDS011;8717;53.588;10.176;2022-11-24T04:26:58;13.47;;;5.80;;
17201;SDS011;8717;53.588;10.176;2022-11-24T04:29:25;11.23;;;5.17;;
17201;SDS011;8717;53.588;10.176;2022-11-24T04:31:52;10.17;;;5.90;;
17201;SDS011;8717;53.588;10.176;2022-11-24T04:34:19;11.73;;;5.47;;
17201;SDS011;8717;53.588;10.176;2022-11-24T04:36:45;11.87;;;5.33;;
17201;SDS011;8717;53.588;10.176;2022-11-24T04:39:12;10.43;;;5.30;;
17201;SDS011;8717;53.588;10.176;2022-11-24T04:41:39;7.97;;;5.27;;
17201;SDS011;8717;53.588;10.176;2022-11-24T04:44:07;12.43;;;5.63;;
17201;SDS011;8717;53.588;10.176;2022-11-24T04:46:33;10.37;;;5.30;;
17201;SDS011;8717;53.588;10.176;2022-11-24T04:49:00;10.03;;;5.50;;
17201;SDS011;8717;53.588;10.176;2022-11-24T04:51:27;11.77;;;4.97;;
17201;SDS011;8717;53.588;10.176;2022-11-24T04:53:53;8.87;;;4.83;;
17201;SDS011;8717;53.588;10.176;2022-11-24T04:56:20;10.40;;;5.83;;
17201;SDS011;8717;53.588;10.176;2022-11-24T04:58:47;9.43;;;5.13;;
17201;SDS011;8717;53.588;10.176;2022-11-24T05:01:16;11.37;;;4.90;;
17201;SDS011;8717;53.588;10.176;2022-11-24T05:03:43;9.57;;;5.43;;
17201;SDS011;8717;53.588;10.176;2022-11-24T05:06:09;10.87;;;5.53;;
17201;SDS011;8717;53.588;10.176;2022-11-24T05:08:36;15.27;;;5.60;;
17201;SDS011;8717;53.588;10.176;2022-11-24T05:11:03;11.63;;;5.27;;
17201;SDS011;8717;53.588;10.176;2022-11-24T05:13:30;11.40;;;5.27;;
17201;SDS011;8717;53.588;10.176;2022-11-24T05:15:57;12.90;;;6.07;;
17201;SDS011;8717;53.588;10.176;2022-11-24T05:18:26;9.10;;;5.07;;
17201;SDS011;8717;53.588;10.176;2022-11-24T05:20:53;9.57;;;5.10;;
17201;SDS011;8717;53.588;10.176;2022-11-24T05:23:20;10.17;;;5.37;;
17201;SDS011;8717;53.588;10.176;2022-11-24T05:25:47;11.73;;;5.23;;
17201;SDS011;8717;53.588;10.176;2022-11-24T05:28:14;19.30;;;5.53;;
17201;SDS011;8717;53.588;10.176;2022-11-24T05:30:41;11.77;;;5.23;;
17201;SDS011;8717;53.588;10.176;2022-11-24T05:33:10;40.03;;;6.73;;
17201;SDS011;8717;53.588;10.176;2022-11-24T05:35:41;15.10;;;5.00;;
17201;SDS011;8717;53.588;10.176;2022-11-24T05:38:08;31.07;;;5.80;;
17201;SDS011;8717;53.588;10.176;2022-11-24T05:40:35;17.80;;;5.23;;
17201;SDS011;8717;53.588;10.176;2022-11-24T05:43:01;19.27;;;5.73;;
17201;SDS011;8717;53.588;10.176;2022-11-24T05:45:28;13.97;;;5.33;;
17201;SDS011;8717;53.588;10.176;2022-11-24T05:48:01;10.17;;;4.97;;
17201;SDS011;8717;53.588;10.176;2022-11-24T05:50:30;9.43;;;5.00;;
17201;SDS011;8717;53.588;10.176;2022-11-24T05:53:01;10.97;;;5.10;;
17201;SDS011;8717;53.588;10.176;2022-11-24T05:55:28;10.93;;;5.60;;
17201;SDS011;8717;53.588;10.176;2022-11-24T05:57:58;18.27;;;5.67;;
17201;SDS011;8717;53.588;10.176;2022-11-24T06:00:25;7.93;;;4.77;;
17201;SDS011;8717;53.588;10.176;2022-11-24T06:02:52;13.03;;;4.90;;
17201;SDS011;8717;53.588;10.176;2022-11-24T06:05:19;13.43;;;5.37;;
17201;SDS011;8717;53.588;10.176;2022-11-24T06:07:46;12.53;;;5.80;;
17201;SDS011;8717;53.588;10.176;2022-11-24T06:10:14;9.07;;;5.23;;
17201;SDS011;8717;53.588;10.176;2022-11-24T06:12:41;10.23;;;5.03;;
17201;SDS011;8717;53.588;10.176;2022-11-24T06:15:08;18.10;;;5.70;;
17201;SDS011;8717;53.588;10.176;2022-11-24T06:17:36;8.63;;;5.10;;
17201;SDS011;8717;53.588;10.176;2022-11-24T06:20:03;9.40;;;5.00;;
17201;SDS011;8717;53.588;10.176;2022-11-24T06:22:31;12.90;;;5.33;;
17201;SDS011;8717;53.588;10.176;2022-11-24T06:24:58;8.47;;;5.00;;
17201;SDS011;8717;53.588;10.176;2022-11-24T06:27:28;12.80;;;5.40;;
17201;SDS011;8717;53.588;10.176;2022-11-24T06:29:55;13.70;;;5.67;;
17201;SDS011;8717;53.588;10.176;2022-11-24T06:32:21;12.20;;;5.40;;
17201;SDS011;8717;53.588;10.176;2022-11-24T06:34:49;11.77;;;5.70;;
17201;SDS011;8717;53.588;10.176;2022-11-24T06:37:15;14.97;;;5.90;;
17201;SDS011;8717;53.588;10.176;2022-11-24T06:39:42;14.67;;;7.83;;
17201;SDS011;8717;53.588;10.176;2022-11-24T06:42:09;10.87;;;6.50;;
17201;SDS011;8717;53.588;10.176;2022-11-24T06:44:37;12.37;;;6.23;;
17201;SDS011;8717;53.588;10.176;2022-11-24T06:47:03;12.50;;;6.07;;
17201;SDS011;8717;53.588;10.176;2022-11-24T06:49:30;14.73;;;6.10;;
17201;SDS011;8717;53.588;10.176;2022-11-24T06:51:57;12.20;;;6.80;;
17201;SDS011;8717;53.588;10.176;2022-11-24T06:54:24;15.73;;;8.80;;
17201;SDS011;8717;53.588;10.176;2022-11-24T06:56:54;17.00;;;8.47;;
17201;SDS011;8717;53.588;10.176;2022-11-24T06:59:21;16.27;;;8.63;;
17201;SDS011;8717;53.588;10.176;2022-11-24T07:01:50;16.33;;;10.50;;
17201;SDS011;8717;53.588;10.176;2022-11-24T07:04:16;12.80;;;5.93;;
17201;SDS011;8717;53.588;10.176;2022-11-24T07:06:44;9.77;;;5.20;;
17201;SDS011;8717;53.588;10.176;2022-11-24T07:09:11;12.17;;;6.33;;
17201;SDS011;8717;53.588;10.176;2022-11-24T07:11:39;16.73;;;7.87;;
17201;SDS011;8717;53.588;10.176;2022-11-24T07:14:06;18.80;;;8.53;;
17201;SDS011;8717;53.588;10.176;2022-11-24T07:16:35;12.13;;;6.20;;
17201;SDS011;8717;53.588;10.176;2022-11-24T07:19:03;13.70;;;6.80;;
17201;SDS011;8717;53.588;10.176;2022-11-24T07:21:30;15.83;;;9.07;;
17201;SDS011;8717;53.588;10.176;2022-11-24T07:23:57;15.87;;;7.47;;
17201;SDS011;8717;53.588;10.176;2022-11-24T07:26:24;11.43;;;6.50;;
17201;SDS011;8717;53.588;10.176;2022-11-24T07:28:51;14.23;;;6.13;;
17201;SDS011;8717;53.588;10.176;2022-11-24T07:31:18;15.73;;;5.60;;
17201;SDS011;8717;53.588;10.176;2022-11-24T07:33:48;11.97;;;6.07;;
17201;SDS011;8717;53.588;10.176;2022-11-24T07:36:17;11.17;;;6.17;;
17201;SDS011;8717;53.588;10.176;2022-11-24T07:38:45;12.97;;;6.47;;
17201;SDS011;8717;53.588;10.176;2022-11-24T07:41:13;14.43;;;6.73;;
17201;SDS011;8717;53.588;10.176;2022-11-24T07:43:41;14.40;;;6.30;;
17201;SDS011;8717;53.588;10.176;2022-11-24T07:46:09;14.13;;;6.63;;
17201;SDS011;8717;53.588;10.176;2022-11-24T07:48:37;15.53;;;6.77;;
17201;SDS011;8717;53.588;10.176;2022-11-24T07:51:04;12.40;;;7.57;;
17201;SDS011;8717;53.588;10.176;2022-11-24T07:53:33;12.47;;;6.77;;
17201;SDS011;8717;53.588;10.176;2022-11-24T07:56:01;9.90;;;5.83;;
17201;SDS011;8717;53.588;10.176;2022-11-24T07:58:30;14.00;;;6.10;;
17201;SDS011;8717;53.588;10.176;2022-11-24T08:00:58;11.57;;;6.10;;
17201;SDS011;8717;53.588;10.176;2022-11-24T08:03:26;13.53;;;6.23;;
17201;SDS011;8717;53.588;10.176;2022-11-24T08:05:53;10.23;;;6.10;;
17201;SDS011;8717;53.588;10.176;2022-11-24T08:08:20;13.80;;;6.67;;
17201;SDS011;8717;53.588;10.176;2022-11-24T08:10:48;9.03;;;6.00;;
17201;SDS011;8717;53.588;10.176;2022-11-24T08:13:15;17.23;;;6.83;;
17201;SDS011;8717;53.588;10.176;2022-11-24T08:15:42;9.23;;;5.83;;
17201;SDS011;8717;53.588;10.176;2022-11-24T08:18:08;12.53;;;5.57;;
17201;SDS011;8717;53.588;10.176;2022-11-24T08:20:35;15.10;;;6.37;;
17201;SDS011;8717;53.588;10.176;2022-11-24T08:23:02;12.53;;;6.17;;
17201;SDS011;8717;53.588;10.176;2022-11-24T08:25:29;11.63;;;6.03;;
17201;SDS011;8717;53.588;10.176;2022-11-24T08:27:57;13.60;;;6.00;;
17201;SDS011;8717;53.588;10.176;2022-11-24T08:30:24;12.30;;;6.23;;
17201;SDS011;8717;53.588;10.176;2022-11-24T08:32:51;15.40;;;6.67;;
17201;SDS011;8717;53.588;10.176;2022-11-24T08:35:17;11.50;;;6.13;;
17201;SDS011;8717;53.588;10.176;2022-11-24T08:37:44;10.33;;;6.23;;
17201;SDS011;8717;53.588;10.176;2022-11-24T08:40:11;13.43;;;6.70;;
17201;SDS011;8717;53.588;10.176;2022-11-24T08:42:38;14.00;;;7.00;;
17201;SDS011;8717;53.588;10.176;2022-11-24T08:45:06;15.60;;;6.10;;
17201;SDS011;8717;53.588;10.176;2022-11-24T08:47:34;10.93;;;5.70;;
17201;SDS011;8717;53.588;10.176;2022-11-24T08:50:00;16.10;;;6.40;;
17201;SDS011;8717;53.588;10.176;2022-11-24T08:52:27;12.47;;;5.57;;
17201;SDS011;8717;53.588;10.176;2022-11-24T08:54:54;10.77;;;6.03;;
17201;SDS011;8717;53.588;10.176;2022-11-24T08:57:21;14.47;;;5.60;;
17201;SDS011;8717;53.588;10.176;2022-11-24T08:59:48;16.37;;;5.73;;
17201;SDS011;8717;53.588;10.176;2022-11-24T09:02:26;17.73;;;6.23;;
17201;SDS011;8717;53.588;10.176;2022-11-24T09:04:53;14.30;;;5.40;;
17201;SDS011;8717;53.588;10.176;2022-11-24T09:07:20;11.40;;;5.60;;
17201;SDS011;8717;53.588;10.176;2022-11-24T09:09:47;10.10;;;5.17;;
17201;SDS011;8717;53.588;10.176;2022-11-24T09:12:14;13.90;;;5.30;;
17201;SDS011;8717;53.588;10.176;2022-11-24T09:14:40;12.23;;;5.13;;
17201;SDS011;8717;53.588;10.176;2022-11-24T09:17:07;10.50;;;5.07;;
17201;SDS011;8717;53.588;10.176;2022-11-24T09:19:35;13.27;;;4.80;;
17201;SDS011;8717;53.588;10.176;2022-11-24T09:22:02;11.60;;;5.53;;
17201;SDS011;8717;53.588;10.176;2022-11-24T09:24:29;16.33;;;5.30;;
17201;SDS011;8717;53.588;10.176;2022-11-24T09:26:55;13.10;;;5.37;;
17201;SDS011;8717;53.588;10.176;2022-11-24T09:29:22;16.03;;;5.23;;
17201;SDS011;8717;53.588;10.176;2022-11-24T09:31:49;9.73;;;5.13;;
17201;SDS011;8717;53.588;10.176;2022-11-24T09:34:16;13.40;;;5.30;;
17201;SDS011;8717;53.588;10.176;2022-11-24T09:36:44;16.70;;;8.10;;
17201;SDS011;8717;53.588;10.176;2022-11-24T09:39:10;14.20;;;7.73;;
17201;SDS011;8717;53.588;10.176;2022-11-24T09:41:46;14.10;;;5.67;;
17201;SDS011;8717;53.588;10.176;2022-11-24T09:47:15;11.67;;;5.50;;
17201;SDS011;8717;53.588;10.176;2022-11-24T09:49:50;14.87;;;5.53;;
17201;SDS011;8717;53.588;10.176;2022-11-24T09:52:25;11.27;;;4.77;;
17201;SDS011;8717;53.588;10.176;2022-11-24T09:55:04;11.30;;;4.80;;
17201;SDS011;8717;53.588;10.176;2022-11-24T09:57:41;13.17;;;5.27;;
17201;SDS011;8717;53.588;10.176;2022-11-24T10:00:09;9.40;;;4.13;;
17201;SDS011;8717;53.588;10.176;2022-11-24T10:02:38;14.43;;;5.00;;
17201;SDS011;8717;53.588;10.176;2022-11-24T10:05:05;10.57;;;5.00;;
17201;SDS011;8717;53.588;10.176;2022-11-24T10:07:36;14.63;;;5.13;;
17201;SDS011;8717;53.588;10.176;2022-11-24T10:10:10;11.33;;;5.00;;
17201;SDS011;8717;53.588;10.176;2022-11-24T10:12:44;12.40;;;5.00;;
17201;SDS011;8717;53.588;10.176;2022-11-24T10:15:26;10.87;;;5.30;;
17201;SDS011;8717;53.588;10.176;2022-11-24T10:21:03;12.17;;;5.30;;
17201;SDS011;8717;53.588;10.176;2022-11-24T10:23:57;14.60;;;5.27;;
17201;SDS011;8717;53.588;10.176;2022-11-24T10:26:38;12.47;;;5.43;;
17201;SDS011;8717;53.588;10.176;2022-11-24T10:29:09;13.67;;;4.87;;
17201;SDS011;8717;53.588;10.176;2022-11-24T10:31:44;15.03;;;6.00;;
17201;SDS011;8717;53.588;10.176;2022-11-24T10:34:13;14.83;;;5.10;;
17201;SDS011;8717;53.588;10.176;2022-11-24T10:36:43;12.23;;;4.40;;
17201;SDS011;8717;53.588;10.176;2022-11-24T10:39:16;10.83;;;4.77;;
17201;SDS011;8717;53.588;10.176;2022-11-24T10:41:47;14.40;;;5.07;;
17201;SDS011;8717;53.588;10.176;2022-11-24T10:44:17;14.70;;;4.70;;
17201;SDS011;8717;53.588;10.176;2022-11-24T10:46:44;14.80;;;6.00;;
17201;SDS011;8717;53.588;10.176;2022-11-24T10:49:13;13.57;;;4.80;;
17201;SDS011;8717;53.588;10.176;2022-11-24T10:52:01;13.90;;;5.50;;
17201;SDS011;8717;53.588;10.176;2022-11-24T10:54:33;8.73;;;4.30;;
17201;SDS011;8717;53.588;10.176;2022-11-24T10:57:00;13.33;;;5.97;;
17201;SDS011;8717;53.588;10.176;2022-11-24T10:59:29;12.73;;;4.40;;
17201;SDS011;8717;53.588;10.176;2022-11-24T11:01:57;14.77;;;5.60;;
17201;SDS011;8717;53.588;10.176;2022-11-24T11:04:25;11.23;;;4.70;;
17201;SDS011;8717;53.588;10.176;2022-11-24T11:07:05;14.80;;;5.57;;
17201;SDS011;8717;53.588;10.176;2022-11-24T11:09:35;13.80;;;4.43;;
17201;SDS011;8717;53.588;10.176;2022-11-24T11:12:08;17.10;;;5.63;;
17201;SDS011;8717;53.588;10.176;2022-11-24T11:14:35;16.70;;;4.90;;
17201;SDS011;8717;53.588;10.176;2022-11-24T11:17:02;11.93;;;5.07;;
17201;SDS011;8717;53.588;10.176;2022-11-24T11:20:00;11.10;;;4.30;;
17201;SDS011;8717;53.588;10.176;2022-11-24T11:22:29;14.80;;;5.27;;
17201;SDS011;8717;53.588;10.176;2022-11-24T11:25:03;11.03;;;4.70;;
17201;SDS011;8717;53.588;10.176;2022-11-24T11:27:32;10.57;;;4.80;;
17201;SDS011;8717;53.588;10.176;2022-11-24T11:30:10;11.07;;;5.20;;
17201;SDS011;8717;53.588;10.176;2022-11-24T11:32:49;11.03;;;5.33;;
17201;SDS011;8717;53.588;10.176;2022-11-24T11:35:18;11.37;;;4.60;;
17201;SDS011;8717;53.588;10.176;2022-11-24T11:37:45;11.47;;;5.20;;
17201;SDS011;8717;53.588;10.176;2022-11-24T11:42:47;11.27;;;4.40;;
17201;SDS011;8717;53.588;10.176;2022-11-24T11:45:18;13.33;;;5.17;;
17201;SDS011;8717;53.588;10.176;2022-11-24T11:47:49;13.87;;;4.27;;
17201;SDS011;8717;53.588;10.176;2022-11-24T11:50:19;12.33;;;4.63;;
17201;SDS011;8717;53.588;10.176;2022-11-24T11:52:59;11.47;;;4.43;;
17201;SDS011;8717;53.588;10.176;2022-11-24T11:55:39;15.37;;;5.40;;
17201;SDS011;8717;53.588;10.176;2022-11-24T11:58:38;11.10;;;4.53;;
17201;SDS011;8717;53.588;10.176;2022-11-24T12:01:23;12.40;;;5.00;;
17201;SDS011;8717;53.588;10.176;2022-11-24T12:04:02;13.93;;;4.63;;
17201;SDS011;8717;53.588;10.176;2022-11-24T12:06:46;13.03;;;4.57;;
17201;SDS011;8717;53.588;10.176;2022-11-24T12:09:31;18.23;;;5.40;;
17201;SDS011;8717;53.588;10.176;2022-11-24T12:12:38;14.67;;;4.70;;
17201;SDS011;8717;53.588;10.176;2022-11-24T12:15:17;17.40;;;5.23;;
17201;SDS011;8717;53.588;10.176;2022-11-24T12:17:49;17.87;;;5.10;;
17201;SDS011;8717;53.588;10.176;2022-11-24T12:20:22;16.43;;;5.17;;
17201;SDS011;8717;53.588;10.176;2022-11-24T12:23:04;17.20;;;5.77;;
17201;SDS011;8717;53.588;10.176;2022-11-24T12:25:39;14.83;;;5.47;;
17201;SDS011;8717;53.588;10.176;2022-11-24T12:28:18;13.73;;;4.80;;
17201;SDS011;8717;53.588;10.176;2022-11-24T12:31:00;16.37;;;5.40;;
17201;SDS011;8717;53.588;10.176;2022-11-24T12:33:50;16.23;;;5.90;;
17201;SDS011;8717;53.588;10.176;2022-11-24T12:36:46;14.37;;;5.13;;
17201;SDS011;8717;53.588;10.176;2022-11-24T12:39:38;15.40;;;5.53;;
17201;SDS011;8717;53.588;10.176;2022-11-24T12:42:11;16.73;;;6.00;;
17201;SDS011;8717;53.588;10.176;2022-11-24T12:44:55;16.90;;;5.60;;
17201;SDS011;8717;53.588;10.176;2022-11-24T12:47:43;13.03;;;4.57;;
17201;SDS011;8717;53.588;10.176;2022-11-24T12:50:28;18.67;;;5.67;;
17201;SDS011;8717;53.588;10.176;2022-11-24T12:53:01;17.27;;;4.97;;
17201;SDS011;8717;53.588;10.176;2022-11-24T12:55:30;17.50;;;4.70;;
17201;SDS011;8717;53.588;10.176;2022-11-24T12:58:02;20.50;;;5.30;;
17201;SDS011;8717;53.588;10.176;2022-11-24T13:00:38;22.40;;;5.10;;
17201;SDS011;8717;53.588;10.176;2022-11-24T13:03:17;13.60;;;4.27;;
17201;SDS011;8717;53.588;10.176;2022-11-24T13:05:57;12.43;;;5.27;;
17201;SDS011;8717;53.588;10.176;2022-11-24T13:08:27;14.13;;;5.10;;
17201;SDS011;8717;53.588;10.176;2022-11-24T13:11:05;22.50;;;7.17;;
17201;SDS011;8717;53.588;10.176;2022-11-24T13:14:05;14.37;;;5.17;;
17201;SDS011;8717;53.588;10.176;2022-11-24T13:16:47;15.30;;;5.63;;
17201;SDS011;8717;53.588;10.176;2022-11-24T13:19:16;17.67;;;5.43;;
17201;SDS011;8717;53.588;10.176;2022-11-24T13:21:46;15.70;;;5.73;;
17201;SDS011;8717;53.588;10.176;2022-11-24T13:24:26;15.20;;;5.00;;
17201;SDS011;8717;53.588;10.176;2022-11-24T13:29:55;15.37;;;5.20;;
17201;SDS011;8717;53.588;10.176;2022-11-24T13:35:26;14.87;;;4.40;;
17201;SDS011;8717;53.588;10.176;2022-11-24T13:37:53;15.03;;;5.33;;
17201;SDS011;8717;53.588;10.176;2022-11-24T13:40:36;15.00;;;4.83;;
17201;SDS011;8717;53.588;10.176;2022-11-24T13:43:20;15.40;;;5.23;;
17201;SDS011;8717;53.588;10.176;2022-11-24T13:45:49;17.80;;;4.37;;
17201;SDS011;8717;53.588;10.176;2022-11-24T13:51:23;14.33;;;4.77;;
17201;SDS011;8717;53.588;10.176;2022-11-24T13:53:50;15.47;;;5.50;;
17201;SDS011;8717;53.588;10.176;2022-11-24T13:56:23;18.77;;;7.60;;
17201;SDS011;8717;53.588;10.176;2022-11-24T13:58:54;16.17;;;5.23;;
17201;SDS011;8717;53.588;10.176;2022-11-24T14:01:23;16.27;;;6.17;;
17201;SDS011;8717;53.588;10.176;2022-11-24T14:03:57;15.67;;;5.83;;
17201;SDS011;8717;53.588;10.176;2022-11-24T14:06:40;17.90;;;6.97;;
17201;SDS011;8717;53.588;10.176;2022-11-24T14:12:03;27.67;;;12.07;;
17201;SDS011;8717;53.588;10.176;2022-11-24T14:14:36;29.83;;;11.53;;
17201;SDS011;8717;53.588;10.176;2022-11-24T14:17:13;18.47;;;7.50;;
17201;SDS011;8717;53.588;10.176;2022-11-24T14:19:44;18.40;;;6.30;;
17201;SDS011;8717;53.588;10.176;2022-11-24T14:22:14;16.47;;;5.53;;
17201;SDS011;8717;53.588;10.176;2022-11-24T14:24:43;14.70;;;5.07;;
17201;SDS011;8717;53.588;10.176;2022-11-24T14:27:12;15.33;;;6.00;;
17201;SDS011;8717;53.588;10.176;2022-11-24T14:29:50;12.43;;;5.77;;
17201;SDS011;8717;53.588;10.176;2022-11-24T14:32:18;20.87;;;8.97;;
17201;SDS011;8717;53.588;10.176;2022-11-24T14:34:48;13.73;;;6.33;;
17201;SDS011;8717;53.588;10.176;2022-11-24T14:37:18;14.83;;;6.90;;
17201;SDS011;8717;53.588;10.176;2022-11-24T14:39:45;14.83;;;5.23;;
17201;SDS011;8717;53.588;10.176;2022-11-24T14:42:15;10.13;;;4.13;;
17201;SDS011;8717;53.588;10.176;2022-11-24T14:44:45;11.93;;;4.60;;
17201;SDS011;8717;53.588;10.176;2022-11-24T14:47:17;15.37;;;4.60;;
17201;SDS011;8717;53.588;10.176;2022-11-24T14:49:48;15.80;;;4.80;;
17201;SDS011;8717;53.588;10.176;2022-11-24T14:52:17;9.63;;;4.37;;
17201;SDS011;8717;53.588;10.176;2022-11-24T14:54:47;19.10;;;4.60;;
17201;SDS011;8717;53.588;10.176;2022-11-24T14:57:25;15.50;;;5.30;;
17201;SDS011;8717;53.588;10.176;2022-11-24T15:00:12;14.27;;;5.30;;
17201;SDS011;8717;53.588;10.176;2022-11-24T15:02:43;14.67;;;4.97;;
17201;SDS011;8717;53.588;10.176;2022-11-24T15:05:15;15.23;;;4.97;;
17201;SDS011;8717;53.588;10.176;2022-11-24T15:07:42;17.80;;;6.50;;
17201;SDS011;8717;53.588;10.176;2022-11-24T15:10:29;17.40;;;7.37;;
17201;SDS011;8717;53.588;10.176;2022-11-24T15:13:00;23.03;;;12.43;;